Coronel Cornejo, Argentina
Current Conditions -  °F | °C
As of 5:00 PM on Sunday 21 Dec 2014 (Local Time) from SLTJ Reporting Station
Scattered Clouds Scattered Clouds  
Wind Chill: 77°   Ceiling: Unl
Heat Index: 79°   Visibility: 6mi
Dew Point: 63°   Wind: 17mph
Humidity: 61%   Direction: 140°SE
Pressure: 29.8"   Gusts: NA
Location:  22.85°S, 63.86°W
Report Text: SLTJ 212000Z 14015KT 9999 SCT033 SCT200 25/17 Q1009
Loading
Personal Weather Stations






























Interactive Weather Map New forecast layout! Learn more

10-Day Weather Forecast

Advertisements
Track Severe Weather on mobile